sensor_id;sensor_type;location;lat;lon;timestamp;temperature;humidity
21487;DHT22;10905;50.822;4.336;2022-11-20T00:00:47;5.20;99.90
21487;DHT22;10905;50.822;4.336;2022-11-20T00:03:13;5.30;99.90
21487;DHT22;10905;50.822;4.336;2022-11-20T00:05:39;5.40;99.90
21487;DHT22;10905;50.822;4.336;2022-11-20T00:08:04;5.30;99.90
21487;DHT22;10905;50.822;4.336;2022-11-20T00:10:30;5.40;99.90
21487;DHT22;10905;50.822;4.336;2022-11-20T00:12:58;5.40;99.90
21487;DHT22;10905;50.822;4.336;2022-11-20T00:15:23;5.30;99.90
21487;DHT22;10905;50.822;4.336;2022-11-20T00:17:49;5.10;99.90
21487;DHT22;10905;50.822;4.336;2022-11-20T00:20:15;5.10;99.90
21487;DHT22;10905;50.822;4.336;2022-11-20T00:22:41;5.10;99.90
21487;DHT22;10905;50.822;4.336;2022-11-20T00:25:06;5.00;99.90
21487;DHT22;10905;50.822;4.336;2022-11-20T00:27:32;5.10;99.90
21487;DHT22;10905;50.822;4.336;2022-11-20T00:29:58;5.00;99.90
21487;DHT22;10905;50.822;4.336;2022-11-20T00:32:23;5.00;99.90
21487;DHT22;10905;50.822;4.336;2022-11-20T00:34:49;5.10;99.90
21487;DHT22;10905;50.822;4.336;2022-11-20T00:37:15;5.20;99.90
21487;DHT22;10905;50.822;4.336;2022-11-20T00:39:40;5.20;99.90
21487;DHT22;10905;50.822;4.336;2022-11-20T00:42:06;5.10;99.90
21487;DHT22;10905;50.822;4.336;2022-11-20T00:44:32;5.10;99.90
21487;DHT22;10905;50.822;4.336;2022-11-20T00:46:57;5.00;99.90
21487;DHT22;10905;50.822;4.336;2022-11-20T00:49:23;4.90;99.90
21487;DHT22;10905;50.822;4.336;2022-11-20T00:51:48;5.00;99.90
21487;DHT22;10905;50.822;4.336;2022-11-20T00:54:14;5.30;99.90
21487;DHT22;10905;50.822;4.336;2022-11-20T00:56:40;5.30;99.90
21487;DHT22;10905;50.822;4.336;2022-11-20T00:59:05;5.40;99.90
21487;DHT22;10905;50.822;4.336;2022-11-20T01:01:31;5.40;99.90
21487;DHT22;10905;50.822;4.336;2022-11-20T01:03:59;5.20;99.90
21487;DHT22;10905;50.822;4.336;2022-11-20T01:06:30;5.20;99.90
21487;DHT22;10905;50.822;4.336;2022-11-20T01:08:58;5.00;99.90
21487;DHT22;10905;50.822;4.336;2022-11-20T01:11:29;5.00;99.90
21487;DHT22;10905;50.822;4.336;2022-11-20T01:13:57;5.00;99.90
21487;DHT22;10905;50.822;4.336;2022-11-20T01:16:27;5.00;99.90
21487;DHT22;10905;50.822;4.336;2022-11-20T01:18:55;5.00;99.90
21487;DHT22;10905;50.822;4.336;2022-11-20T01:21:23;5.00;99.90
21487;DHT22;10905;50.822;4.336;2022-11-20T01:23:50;5.20;99.90
21487;DHT22;10905;50.822;4.336;2022-11-20T01:26:19;5.30;99.90
21487;DHT22;10905;50.822;4.336;2022-11-20T01:28:45;5.20;99.90
21487;DHT22;10905;50.822;4.336;2022-11-20T01:31:20;5.20;99.90
21487;DHT22;10905;50.822;4.336;2022-11-20T01:33:47;5.10;99.90
21487;DHT22;10905;50.822;4.336;2022-11-20T01:36:15;5.00;99.90
21487;DHT22;10905;50.822;4.336;2022-11-20T01:38:41;5.00;99.90
21487;DHT22;10905;50.822;4.336;2022-11-20T01:41:08;5.00;99.90
21487;DHT22;10905;50.822;4.336;2022-11-20T01:43:34;4.90;99.90
21487;DHT22;10905;50.822;4.336;2022-11-20T01:46:16;5.00;99.90
21487;DHT22;10905;50.822;4.336;2022-11-20T01:48:59;4.80;99.90
21487;DHT22;10905;50.822;4.336;2022-11-20T01:51:35;4.80;99.90
21487;DHT22;10905;50.822;4.336;2022-11-20T01:54:07;4.80;99.90
21487;DHT22;10905;50.822;4.336;2022-11-20T01:56:38;4.80;99.90
21487;DHT22;10905;50.822;4.336;2022-11-20T01:59:08;4.90;99.90
21487;DHT22;10905;50.822;4.336;2022-11-20T02:01:35;4.90;99.90
21487;DHT22;10905;50.822;4.336;2022-11-20T02:04:01;5.00;99.90
21487;DHT22;10905;50.822;4.336;2022-11-20T02:09:05;5.10;99.90
21487;DHT22;10905;50.822;4.336;2022-11-20T02:11:31;5.10;99.90
21487;DHT22;10905;50.822;4.336;2022-11-20T02:13:58;5.10;99.90
21487;DHT22;10905;50.822;4.336;2022-11-20T02:16:27;5.30;99.90
21487;DHT22;10905;50.822;4.336;2022-11-20T02:18:55;5.40;99.90
21487;DHT22;10905;50.822;4.336;2022-11-20T02:24:30;5.30;99.90
21487;DHT22;10905;50.822;4.336;2022-11-20T02:27:10;5.40;99.90
21487;DHT22;10905;50.822;4.336;2022-11-20T02:32:24;5.30;99.90
21487;DHT22;10905;50.822;4.336;2022-11-20T02:34:50;5.30;99.90
21487;DHT22;10905;50.822;4.336;2022-11-20T02:37:15;5.30;99.90
21487;DHT22;10905;50.822;4.336;2022-11-20T02:39:42;5.40;99.90
21487;DHT22;10905;50.822;4.336;2022-11-20T02:42:08;5.40;99.90
21487;DHT22;10905;50.822;4.336;2022-11-20T02:44:34;5.40;99.90
21487;DHT22;10905;50.822;4.336;2022-11-20T02:46:59;5.20;99.90
21487;DHT22;10905;50.822;4.336;2022-11-20T02:49:25;5.30;99.90
21487;DHT22;10905;50.822;4.336;2022-11-20T02:51:51;5.20;99.90
21487;DHT22;10905;50.822;4.336;2022-11-20T02:54:17;5.30;99.90
21487;DHT22;10905;50.822;4.336;2022-11-20T02:56:43;5.20;99.90
21487;DHT22;10905;50.822;4.336;2022-11-20T02:59:09;5.10;99.90
21487;DHT22;10905;50.822;4.336;2022-11-20T03:01:35;5.10;99.90
21487;DHT22;10905;50.822;4.336;2022-11-20T03:04:01;5.20;99.90
21487;DHT22;10905;50.822;4.336;2022-11-20T03:06:27;5.20;99.90
21487;DHT22;10905;50.822;4.336;2022-11-20T03:08:53;5.20;99.90
21487;DHT22;10905;50.822;4.336;2022-11-20T03:11:19;5.30;99.90
21487;DHT22;10905;50.822;4.336;2022-11-20T03:13:45;5.30;99.90
21487;DHT22;10905;50.822;4.336;2022-11-20T03:16:16;5.30;99.90
21487;DHT22;10905;50.822;4.336;2022-11-20T03:18:42;5.20;99.90
21487;DHT22;10905;50.822;4.336;2022-11-20T03:21:09;5.10;99.90
21487;DHT22;10905;50.822;4.336;2022-11-20T03:23:36;5.10;99.90
21487;DHT22;10905;50.822;4.336;2022-11-20T03:26:14;5.20;99.90
21487;DHT22;10905;50.822;4.336;2022-11-20T03:28:41;5.20;99.90
21487;DHT22;10905;50.822;4.336;2022-11-20T03:31:12;5.20;99.90
21487;DHT22;10905;50.822;4.336;2022-11-20T03:33:39;5.30;99.90
21487;DHT22;10905;50.822;4.336;2022-11-20T03:36:07;5.30;99.90
21487;DHT22;10905;50.822;4.336;2022-11-20T03:38:33;5.40;99.90
21487;DHT22;10905;50.822;4.336;2022-11-20T03:41:05;5.40;99.90
21487;DHT22;10905;50.822;4.336;2022-11-20T03:43:31;5.30;99.90
21487;DHT22;10905;50.822;4.336;2022-11-20T03:45:56;5.40;99.90
21487;DHT22;10905;50.822;4.336;2022-11-20T03:48:22;5.50;99.90
21487;DHT22;10905;50.822;4.336;2022-11-20T03:50:48;5.50;99.90
21487;DHT22;10905;50.822;4.336;2022-11-20T03:53:15;5.50;99.90
21487;DHT22;10905;50.822;4.336;2022-11-20T03:55:40;5.60;99.90
21487;DHT22;10905;50.822;4.336;2022-11-20T03:58:06;5.50;99.90
21487;DHT22;10905;50.822;4.336;2022-11-20T04:00:32;5.40;99.90
21487;DHT22;10905;50.822;4.336;2022-11-20T04:02:58;5.40;99.90
21487;DHT22;10905;50.822;4.336;2022-11-20T04:05:25;5.40;99.90
21487;DHT22;10905;50.822;4.336;2022-11-20T04:07:50;5.40;99.90
21487;DHT22;10905;50.822;4.336;2022-11-20T04:10:16;5.40;99.90
21487;DHT22;10905;50.822;4.336;2022-11-20T04:12:42;5.30;99.90
21487;DHT22;10905;50.822;4.336;2022-11-20T04:15:08;5.30;99.90
21487;DHT22;10905;50.822;4.336;2022-11-20T04:17:34;5.30;99.90
21487;DHT22;10905;50.822;4.336;2022-11-20T04:19:59;5.40;99.90
21487;DHT22;10905;50.822;4.336;2022-11-20T04:22:25;5.50;99.90
21487;DHT22;10905;50.822;4.336;2022-11-20T04:24:51;5.50;99.90
21487;DHT22;10905;50.822;4.336;2022-11-20T04:27:16;5.50;99.90
21487;DHT22;10905;50.822;4.336;2022-11-20T04:29:42;5.60;99.90
21487;DHT22;10905;50.822;4.336;2022-11-20T04:32:09;5.50;99.90
21487;DHT22;10905;50.822;4.336;2022-11-20T04:34:35;5.50;99.90
21487;DHT22;10905;50.822;4.336;2022-11-20T04:37:01;5.50;99.90
21487;DHT22;10905;50.822;4.336;2022-11-20T04:39:26;5.60;99.90
21487;DHT22;10905;50.822;4.336;2022-11-20T04:41:52;5.40;99.90
21487;DHT22;10905;50.822;4.336;2022-11-20T04:44:37;5.40;99.90
21487;DHT22;10905;50.822;4.336;2022-11-20T04:47:03;5.40;99.90
21487;DHT22;10905;50.822;4.336;2022-11-20T04:49:28;5.50;99.90
21487;DHT22;10905;50.822;4.336;2022-11-20T04:51:54;5.50;99.90
21487;DHT22;10905;50.822;4.336;2022-11-20T04:54:20;5.60;99.90
21487;DHT22;10905;50.822;4.336;2022-11-20T04:56:47;5.60;99.90
21487;DHT22;10905;50.822;4.336;2022-11-20T04:59:13;5.50;99.90
21487;DHT22;10905;50.822;4.336;2022-11-20T05:01:38;5.50;99.90
21487;DHT22;10905;50.822;4.336;2022-11-20T05:04:04;5.60;99.90
21487;DHT22;10905;50.822;4.336;2022-11-20T05:06:31;5.50;99.90
21487;DHT22;10905;50.822;4.336;2022-11-20T05:08:57;5.60;99.90
21487;DHT22;10905;50.822;4.336;2022-11-20T05:11:22;5.60;99.90
21487;DHT22;10905;50.822;4.336;2022-11-20T05:13:50;5.50;99.90
21487;DHT22;10905;50.822;4.336;2022-11-20T05:16:17;5.40;99.90
21487;DHT22;10905;50.822;4.336;2022-11-20T05:18:44;5.50;99.90
21487;DHT22;10905;50.822;4.336;2022-11-20T05:21:11;5.70;99.90
21487;DHT22;10905;50.822;4.336;2022-11-20T05:23:37;5.60;99.90
21487;DHT22;10905;50.822;4.336;2022-11-20T05:26:04;5.60;99.90
21487;DHT22;10905;50.822;4.336;2022-11-20T05:28:31;5.60;99.90
21487;DHT22;10905;50.822;4.336;2022-11-20T05:31:06;5.70;99.90
21487;DHT22;10905;50.822;4.336;2022-11-20T05:33:33;5.50;99.90
21487;DHT22;10905;50.822;4.336;2022-11-20T05:35:58;5.70;99.90
21487;DHT22;10905;50.822;4.336;2022-11-20T05:38:24;5.70;99.90
21487;DHT22;10905;50.822;4.336;2022-11-20T05:40:50;5.70;99.90
21487;DHT22;10905;50.822;4.336;2022-11-20T05:43:15;5.60;99.90
21487;DHT22;10905;50.822;4.336;2022-11-20T05:45:41;5.60;99.90
21487;DHT22;10905;50.822;4.336;2022-11-20T05:48:06;5.60;99.90
21487;DHT22;10905;50.822;4.336;2022-11-20T05:50:32;5.70;99.90
21487;DHT22;10905;50.822;4.336;2022-11-20T05:52:59;5.70;99.90
21487;DHT22;10905;50.822;4.336;2022-11-20T05:55:25;5.80;99.90
21487;DHT22;10905;50.822;4.336;2022-11-20T05:57:55;5.80;99.90
21487;DHT22;10905;50.822;4.336;2022-11-20T06:00:20;5.80;99.90
21487;DHT22;10905;50.822;4.336;2022-11-20T06:02:46;5.80;99.90
21487;DHT22;10905;50.822;4.336;2022-11-20T06:05:12;5.90;99.90
21487;DHT22;10905;50.822;4.336;2022-11-20T06:07:37;5.90;99.90
21487;DHT22;10905;50.822;4.336;2022-11-20T06:10:03;5.80;99.90
21487;DHT22;10905;50.822;4.336;2022-11-20T06:12:31;5.80;99.90
21487;DHT22;10905;50.822;4.336;2022-11-20T06:14:57;5.70;99.90
21487;DHT22;10905;50.822;4.336;2022-11-20T06:17:23;5.90;99.90
21487;DHT22;10905;50.822;4.336;2022-11-20T06:19:48;6.10;99.90
21487;DHT22;10905;50.822;4.336;2022-11-20T06:22:14;6.10;99.90
21487;DHT22;10905;50.822;4.336;2022-11-20T06:24:39;6.00;99.90
21487;DHT22;10905;50.822;4.336;2022-11-20T06:27:05;6.00;99.90
21487;DHT22;10905;50.822;4.336;2022-11-20T06:29:31;5.90;99.90
21487;DHT22;10905;50.822;4.336;2022-11-20T06:31:56;5.90;99.90
21487;DHT22;10905;50.822;4.336;2022-11-20T06:34:22;5.90;99.90
21487;DHT22;10905;50.822;4.336;2022-11-20T06:36:47;6.00;99.90
21487;DHT22;10905;50.822;4.336;2022-11-20T06:39:13;5.90;99.90
21487;DHT22;10905;50.822;4.336;2022-11-20T06:41:38;5.90;99.90
21487;DHT22;10905;50.822;4.336;2022-11-20T06:44:05;5.80;99.90
21487;DHT22;10905;50.822;4.336;2022-11-20T06:46:31;5.90;99.90
21487;DHT22;10905;50.822;4.336;2022-11-20T06:48:57;5.90;99.90
21487;DHT22;10905;50.822;4.336;2022-11-20T06:51:23;6.10;99.90
21487;DHT22;10905;50.822;4.336;2022-11-20T06:53:49;6.00;99.90
21487;DHT22;10905;50.822;4.336;2022-11-20T06:56:14;5.90;99.90
21487;DHT22;10905;50.822;4.336;2022-11-20T06:58:40;6.00;99.90
21487;DHT22;10905;50.822;4.336;2022-11-20T07:01:12;6.10;99.90
21487;DHT22;10905;50.822;4.336;2022-11-20T07:03:38;6.10;99.90
21487;DHT22;10905;50.822;4.336;2022-11-20T07:06:05;6.20;99.90
21487;DHT22;10905;50.822;4.336;2022-11-20T07:08:31;6.10;99.90
21487;DHT22;10905;50.822;4.336;2022-11-20T07:10:58;6.30;99.90
21487;DHT22;10905;50.822;4.336;2022-11-20T07:13:25;6.40;99.90
21487;DHT22;10905;50.822;4.336;2022-11-20T07:15:51;6.40;99.90
21487;DHT22;10905;50.822;4.336;2022-11-20T07:18:16;6.50;99.90
21487;DHT22;10905;50.822;4.336;2022-11-20T07:20:42;6.20;99.90
21487;DHT22;10905;50.822;4.336;2022-11-20T07:23:07;6.30;99.90
21487;DHT22;10905;50.822;4.336;2022-11-20T07:25:33;6.40;99.90
21487;DHT22;10905;50.822;4.336;2022-11-20T07:27:59;6.40;99.90
21487;DHT22;10905;50.822;4.336;2022-11-20T07:30:29;6.50;99.90
21487;DHT22;10905;50.822;4.336;2022-11-20T07:32:56;6.50;99.90
21487;DHT22;10905;50.822;4.336;2022-11-20T07:35:25;6.60;99.90
21487;DHT22;10905;50.822;4.336;2022-11-20T07:37:51;6.60;99.90
21487;DHT22;10905;50.822;4.336;2022-11-20T07:40:17;6.70;99.90
21487;DHT22;10905;50.822;4.336;2022-11-20T07:42:50;6.60;99.90
21487;DHT22;10905;50.822;4.336;2022-11-20T07:45:17;6.60;99.90
21487;DHT22;10905;50.822;4.336;2022-11-20T07:47:42;6.70;99.90
21487;DHT22;10905;50.822;4.336;2022-11-20T07:50:08;6.60;99.90
21487;DHT22;10905;50.822;4.336;2022-11-20T07:52:34;6.60;99.90
21487;DHT22;10905;50.822;4.336;2022-11-20T07:54:59;6.70;99.90
21487;DHT22;10905;50.822;4.336;2022-11-20T07:57:25;6.70;99.90
21487;DHT22;10905;50.822;4.336;2022-11-20T07:59:50;6.70;99.90
21487;DHT22;10905;50.822;4.336;2022-11-20T08:02:16;6.70;99.90
21487;DHT22;10905;50.822;4.336;2022-11-20T08:04:41;6.80;99.90
21487;DHT22;10905;50.822;4.336;2022-11-20T08:07:07;6.80;99.90
21487;DHT22;10905;50.822;4.336;2022-11-20T08:09:33;6.80;99.90
21487;DHT22;10905;50.822;4.336;2022-11-20T08:11:58;6.70;99.90
21487;DHT22;10905;50.822;4.336;2022-11-20T08:14:42;7.00;99.90
21487;DHT22;10905;50.822;4.336;2022-11-20T08:17:08;6.80;99.90
21487;DHT22;10905;50.822;4.336;2022-11-20T08:19:33;7.00;99.90
21487;DHT22;10905;50.822;4.336;2022-11-20T08:21:59;6.90;99.90
21487;DHT22;10905;50.822;4.336;2022-11-20T08:24:25;6.90;99.90
21487;DHT22;10905;50.822;4.336;2022-11-20T08:26:51;6.90;99.90
21487;DHT22;10905;50.822;4.336;2022-11-20T08:29:17;7.00;99.90
21487;DHT22;10905;50.822;4.336;2022-11-20T08:31:43;7.30;99.90
21487;DHT22;10905;50.822;4.336;2022-11-20T08:34:09;7.40;99.90
21487;DHT22;10905;50.822;4.336;2022-11-20T08:36:35;7.30;99.90
21487;DHT22;10905;50.822;4.336;2022-11-20T08:39:01;7.40;99.90
21487;DHT22;10905;50.822;4.336;2022-11-20T08:41:27;7.60;99.90
21487;DHT22;10905;50.822;4.336;2022-11-20T08:43:55;7.40;99.90
21487;DHT22;10905;50.822;4.336;2022-11-20T08:46:22;7.40;99.90
21487;DHT22;10905;50.822;4.336;2022-11-20T08:48:48;7.50;99.90
21487;DHT22;10905;50.822;4.336;2022-11-20T08:51:13;7.50;99.90
21487;DHT22;10905;50.822;4.336;2022-11-20T08:53:40;7.50;99.90
21487;DHT22;10905;50.822;4.336;2022-11-20T08:56:05;7.50;99.90
21487;DHT22;10905;50.822;4.336;2022-11-20T08:58:31;7.70;99.90
21487;DHT22;10905;50.822;4.336;2022-11-20T09:00:57;7.60;99.90
21487;DHT22;10905;50.822;4.336;2022-11-20T09:03:23;7.60;99.90
21487;DHT22;10905;50.822;4.336;2022-11-20T09:05:48;7.70;99.90
21487;DHT22;10905;50.822;4.336;2022-11-20T09:08:14;7.80;99.90
21487;DHT22;10905;50.822;4.336;2022-11-20T09:10:39;8.10;99.90
21487;DHT22;10905;50.822;4.336;2022-11-20T09:13:05;8.00;99.90
21487;DHT22;10905;50.822;4.336;2022-11-20T09:15:31;8.20;99.90
21487;DHT22;10905;50.822;4.336;2022-11-20T09:17:59;8.10;99.90
21487;DHT22;10905;50.822;4.336;2022-11-20T09:20:26;8.10;99.90
21487;DHT22;10905;50.822;4.336;2022-11-20T09:22:52;8.00;99.90
21487;DHT22;10905;50.822;4.336;2022-11-20T09:25:17;8.00;99.90
21487;DHT22;10905;50.822;4.336;2022-11-20T09:27:43;8.00;99.90
21487;DHT22;10905;50.822;4.336;2022-11-20T09:30:12;8.10;99.90
21487;DHT22;10905;50.822;4.336;2022-11-20T09:32:41;8.20;99.90
21487;DHT22;10905;50.822;4.336;2022-11-20T09:35:08;8.30;99.90
21487;DHT22;10905;50.822;4.336;2022-11-20T09:37:34;8.40;99.90
21487;DHT22;10905;50.822;4.336;2022-11-20T09:40:00;8.50;99.90
21487;DHT22;10905;50.822;4.336;2022-11-20T09:42:51;8.60;99.90
21487;DHT22;10905;50.822;4.336;2022-11-20T09:45:50;8.70;99.90
21487;DHT22;10905;50.822;4.336;2022-11-20T09:48:24;8.80;99.90
21487;DHT22;10905;50.822;4.336;2022-11-20T09:56:34;8.50;99.90
21487;DHT22;10905;50.822;4.336;2022-11-20T09:59:05;8.60;99.90
21487;DHT22;10905;50.822;4.336;2022-11-20T10:01:35;8.80;99.90
21487;DHT22;10905;50.822;4.336;2022-11-20T10:04:16;8.80;99.90
21487;DHT22;10905;50.822;4.336;2022-11-20T10:07:05;8.90;99.90
21487;DHT22;10905;50.822;4.336;2022-11-20T10:09:37;9.00;99.90
21487;DHT22;10905;50.822;4.336;2022-11-20T10:12:28;9.20;99.90
21487;DHT22;10905;50.822;4.336;2022-11-20T10:25:39;9.50;99.90
21487;DHT22;10905;50.822;4.336;2022-11-20T10:28:29;9.60;99.90
21487;DHT22;10905;50.822;4.336;2022-11-20T10:31:09;9.50;99.90
21487;DHT22;10905;50.822;4.336;2022-11-20T10:33:40;9.60;99.90
21487;DHT22;10905;50.822;4.336;2022-11-20T10:36:28;9.50;99.90
21487;DHT22;10905;50.822;4.336;2022-11-20T10:39:05;9.70;99.90
21487;DHT22;10905;50.822;4.336;2022-11-20T10:41:41;9.80;99.90
21487;DHT22;10905;50.822;4.336;2022-11-20T10:44:36;9.90;99.90
21487;DHT22;10905;50.822;4.336;2022-11-20T10:47:20;9.90;99.90
21487;DHT22;10905;50.822;4.336;2022-11-20T10:49:51;10.00;99.90
21487;DHT22;10905;50.822;4.336;2022-11-20T10:52:45;10.10;99.90
21487;DHT22;10905;50.822;4.336;2022-11-20T10:58:21;10.00;99.90
21487;DHT22;10905;50.822;4.336;2022-11-20T11:00:49;9.90;99.90
21487;DHT22;10905;50.822;4.336;2022-11-20T11:03:27;9.90;99.90
21487;DHT22;10905;50.822;4.336;2022-11-20T11:08:39;10.00;99.90
21487;DHT22;10905;50.822;4.336;2022-11-20T11:11:24;10.20;99.90
21487;DHT22;10905;50.822;4.336;2022-11-20T11:13:51;10.30;99.90
21487;DHT22;10905;50.822;4.336;2022-11-20T11:16:23;10.30;99.90
21487;DHT22;10905;50.822;4.336;2022-11-20T11:18:49;10.10;99.90
21487;DHT22;10905;50.822;4.336;2022-11-20T11:21:22;10.10;99.90
21487;DHT22;10905;50.822;4.336;2022-11-20T11:24:00;10.20;99.90
21487;DHT22;10905;50.822;4.336;2022-11-20T11:26:27;10.10;99.90
21487;DHT22;10905;50.822;4.336;2022-11-20T11:28:55;10.00;99.90
21487;DHT22;10905;50.822;4.336;2022-11-20T11:31:29;10.00;99.90
21487;DHT22;10905;50.822;4.336;2022-11-20T11:34:15;10.10;99.90
21487;DHT22;10905;50.822;4.336;2022-11-20T11:36:42;10.10;99.90
21487;DHT22;10905;50.822;4.336;2022-11-20T11:39:16;10.00;99.90
21487;DHT22;10905;50.822;4.336;2022-11-20T11:41:43;10.00;99.90
21487;DHT22;10905;50.822;4.336;2022-11-20T11:44:31;10.00;99.90
21487;DHT22;10905;50.822;4.336;2022-11-20T11:52:45;9.70;99.90
21487;DHT22;10905;50.822;4.336;2022-11-20T11:55:47;9.70;99.90
21487;DHT22;10905;50.822;4.336;2022-11-20T11:58:45;9.50;99.90
21487;DHT22;10905;50.822;4.336;2022-11-20T12:01:35;9.40;99.90
21487;DHT22;10905;50.822;4.336;2022-11-20T12:06:39;9.40;99.90
21487;DHT22;10905;50.822;4.336;2022-11-20T12:09:10;9.50;99.90
21487;DHT22;10905;50.822;4.336;2022-11-20T12:11:55;9.30;99.90
21487;DHT22;10905;50.822;4.336;2022-11-20T12:14:37;9.40;99.90
21487;DHT22;10905;50.822;4.336;2022-11-20T12:17:04;9.30;99.90
21487;DHT22;10905;50.822;4.336;2022-11-20T12:19:31;9.10;99.90
21487;DHT22;10905;50.822;4.336;2022-11-20T12:22:23;9.00;99.90
21487;DHT22;10905;50.822;4.336;2022-11-20T12:30:12;9.10;99.90
21487;DHT22;10905;50.822;4.336;2022-11-20T12:35:41;9.10;99.90
21487;DHT22;10905;50.822;4.336;2022-11-20T12:44:22;8.90;99.90
21487;DHT22;10905;50.822;4.336;2022-11-20T12:58:44;9.20;99.90
21487;DHT22;10905;50.822;4.336;2022-11-20T13:01:45;9.30;99.90
21487;DHT22;10905;50.822;4.336;2022-11-20T13:04:44;9.30;99.90
21487;DHT22;10905;50.822;4.336;2022-11-20T13:07:16;9.40;99.90
21487;DHT22;10905;50.822;4.336;2022-11-20T13:09:46;9.50;99.90
21487;DHT22;10905;50.822;4.336;2022-11-20T13:12:43;9.50;99.90
21487;DHT22;10905;50.822;4.336;2022-11-20T13:15:34;9.40;99.90
21487;DHT22;10905;50.822;4.336;2022-11-20T13:18:03;9.30;99.90
21487;DHT22;10905;50.822;4.336;2022-11-20T13:20:31;9.20;99.90
21487;DHT22;10905;50.822;4.336;2022-11-20T13:22:58;9.20;99.90
21487;DHT22;10905;50.822;4.336;2022-11-20T13:25:29;9.00;99.90
21487;DHT22;10905;50.822;4.336;2022-11-20T13:27:57;9.20;99.90
21487;DHT22;10905;50.822;4.336;2022-11-20T13:30:27;9.20;99.90
21487;DHT22;10905;50.822;4.336;2022-11-20T13:35:53;9.20;99.90
21487;DHT22;10905;50.822;4.336;2022-11-20T13:38:19;9.20;99.90
21487;DHT22;10905;50.822;4.336;2022-11-20T13:40:52;9.10;99.90
21487;DHT22;10905;50.822;4.336;2022-11-20T13:46:16;9.00;99.90
21487;DHT22;10905;50.822;4.336;2022-11-20T13:48:46;8.90;99.90
21487;DHT22;10905;50.822;4.336;2022-11-20T13:57:09;9.00;99.90
21487;DHT22;10905;50.822;4.336;2022-11-20T14:00:00;9.20;99.90
21487;DHT22;10905;50.822;4.336;2022-11-20T14:02:29;9.30;99.90
21487;DHT22;10905;50.822;4.336;2022-11-20T14:04:58;9.20;99.90
21487;DHT22;10905;50.822;4.336;2022-11-20T14:07:31;9.10;99.90
21487;DHT22;10905;50.822;4.336;2022-11-20T14:09:57;9.20;99.90
21487;DHT22;10905;50.822;4.336;2022-11-20T14:12:31;9.20;99.90
21487;DHT22;10905;50.822;4.336;2022-11-20T14:14:57;9.10;99.90
21487;DHT22;10905;50.822;4.336;2022-11-20T14:17:31;9.10;99.90
21487;DHT22;10905;50.822;4.336;2022-11-20T14:20:12;9.10;99.90
21487;DHT22;10905;50.822;4.336;2022-11-20T14:22:39;9.10;99.90
21487;DHT22;10905;50.822;4.336;2022-11-20T14:27:43;9.00;99.90
21487;DHT22;10905;50.822;4.336;2022-11-20T14:30:57;9.10;99.90
21487;DHT22;10905;50.822;4.336;2022-11-20T14:33:04;9.10;99.90
21487;DHT22;10905;50.822;4.336;2022-11-20T14:35:34;9.10;99.90
21487;DHT22;10905;50.822;4.336;2022-11-20T14:38:01;9.10;99.90
21487;DHT22;10905;50.822;4.336;2022-11-20T14:40:35;9.20;99.90
21487;DHT22;10905;50.822;4.336;2022-11-20T14:43:02;9.10;99.90
21487;DHT22;10905;50.822;4.336;2022-11-20T14:45:30;9.10;99.90
21487;DHT22;10905;50.822;4.336;2022-11-20T14:47:57;9.10;99.90
21487;DHT22;10905;50.822;4.336;2022-11-20T14:50:25;9.10;99.90
21487;DHT22;10905;50.822;4.336;2022-11-20T14:52:57;9.30;99.90
21487;DHT22;10905;50.822;4.336;2022-11-20T14:55:32;9.30;99.90
21487;DHT22;10905;50.822;4.336;2022-11-20T14:58:00;9.30;99.90
21487;DHT22;10905;50.822;4.336;2022-11-20T15:00:27;9.40;99.90
21487;DHT22;10905;50.822;4.336;2022-11-20T15:02:53;9.20;99.90
21487;DHT22;10905;50.822;4.336;2022-11-20T15:05:26;9.20;99.90
21487;DHT22;10905;50.822;4.336;2022-11-20T15:08:12;9.20;99.90
21487;DHT22;10905;50.822;4.336;2022-11-20T15:10:38;9.30;99.90
21487;DHT22;10905;50.822;4.336;2022-11-20T15:13:34;9.30;99.90
21487;DHT22;10905;50.822;4.336;2022-11-20T15:16:02;9.40;99.90
21487;DHT22;10905;50.822;4.336;2022-11-20T15:18:37;9.40;99.90
21487;DHT22;10905;50.822;4.336;2022-11-20T15:21:10;9.30;99.90
21487;DHT22;10905;50.822;4.336;2022-11-20T15:23:36;9.50;99.90
21487;DHT22;10905;50.822;4.336;2022-11-20T15:26:07;9.40;99.90
21487;DHT22;10905;50.822;4.336;2022-11-20T15:28:35;9.50;99.90
21487;DHT22;10905;50.822;4.336;2022-11-20T15:31:03;9.40;99.90
21487;DHT22;10905;50.822;4.336;2022-11-20T15:33:30;9.50;99.90
21487;DHT22;10905;50.822;4.336;2022-11-20T15:35:55;9.50;99.90
21487;DHT22;10905;50.822;4.336;2022-11-20T15:38:21;9.60;99.90
21487;DHT22;10905;50.822;4.336;2022-11-20T15:40:47;9.40;99.90
21487;DHT22;10905;50.822;4.336;2022-11-20T15:43:12;9.40;99.90
21487;DHT22;10905;50.822;4.336;2022-11-20T15:45:39;9.40;99.90
21487;DHT22;10905;50.822;4.336;2022-11-20T15:48:09;9.50;99.90
21487;DHT22;10905;50.822;4.336;2022-11-20T15:51:01;9.40;99.90
21487;DHT22;10905;50.822;4.336;2022-11-20T15:53:24;9.30;99.90
21487;DHT22;10905;50.822;4.336;2022-11-20T15:55:50;9.40;99.90
21487;DHT22;10905;50.822;4.336;2022-11-20T15:58:15;9.30;99.90
21487;DHT22;10905;50.822;4.336;2022-11-20T16:00:42;9.30;99.90
21487;DHT22;10905;50.822;4.336;2022-11-20T16:03:12;9.30;99.90
21487;DHT22;10905;50.822;4.336;2022-11-20T16:05:38;9.40;99.90
21487;DHT22;10905;50.822;4.336;2022-11-20T16:08:04;9.50;99.90
21487;DHT22;10905;50.822;4.336;2022-11-20T16:10:30;9.50;99.90
21487;DHT22;10905;50.822;4.336;2022-11-20T16:12:56;9.60;99.90
21487;DHT22;10905;50.822;4.336;2022-11-20T16:15:40;9.60;99.90
21487;DHT22;10905;50.822;4.336;2022-11-20T16:18:13;9.70;99.90
21487;DHT22;10905;50.822;4.336;2022-11-20T16:20:39;9.60;99.90
21487;DHT22;10905;50.822;4.336;2022-11-20T16:23:06;9.50;99.90
21487;DHT22;10905;50.822;4.336;2022-11-20T16:25:32;9.50;99.90
21487;DHT22;10905;50.822;4.336;2022-11-20T16:27:57;9.50;99.90
21487;DHT22;10905;50.822;4.336;2022-11-20T16:30:23;9.50;99.90
21487;DHT22;10905;50.822;4.336;2022-11-20T16:32:49;9.60;99.90
21487;DHT22;10905;50.822;4.336;2022-11-20T16:35:14;9.40;99.90
21487;DHT22;10905;50.822;4.336;2022-11-20T16:37:40;9.40;99.90
21487;DHT22;10905;50.822;4.336;2022-11-20T16:42:42;9.40;99.90
21487;DHT22;10905;50.822;4.336;2022-11-20T16:45:08;9.40;99.90
21487;DHT22;10905;50.822;4.336;2022-11-20T16:47:34;9.40;99.90
21487;DHT22;10905;50.822;4.336;2022-11-20T16:50:01;9.30;99.90
21487;DHT22;10905;50.822;4.336;2022-11-20T16:52:27;9.40;99.90
21487;DHT22;10905;50.822;4.336;2022-11-20T16:54:53;9.40;99.90
21487;DHT22;10905;50.822;4.336;2022-11-20T16:57:18;9.40;99.90
21487;DHT22;10905;50.822;4.336;2022-11-20T16:59:44;9.50;99.90
21487;DHT22;10905;50.822;4.336;2022-11-20T17:02:10;9.60;99.90
21487;DHT22;10905;50.822;4.336;2022-11-20T17:04:36;9.60;99.90
21487;DHT22;10905;50.822;4.336;2022-11-20T17:07:02;9.60;99.90
21487;DHT22;10905;50.822;4.336;2022-11-20T17:09:28;9.50;99.90
21487;DHT22;10905;50.822;4.336;2022-11-20T17:11:53;9.40;99.90
21487;DHT22;10905;50.822;4.336;2022-11-20T17:14:19;9.50;99.90
21487;DHT22;10905;50.822;4.336;2022-11-20T17:16:45;9.50;99.90
21487;DHT22;10905;50.822;4.336;2022-11-20T17:19:10;9.40;99.90